Meiryu Maru — JD2358 — position and weather

sailwx.info

Track history (hours):
 
Tides and Currents Weather Stations Pressure Air Temp Water Temp Dewpoint Dewpoint Depression Visibility Wind Speed Wind Dir Waves Ship Positions

Meiryu Maru

Last reported at 2018-Jul-17 10:55 UTC. Time now 2018-Jul-17 11:24 UTC.
Position N 33°52' E 135°04'.

Length 76 m; draft 4 m.

Type: Cargo ship. MMSI: 431000206.

Date/timePositionNaut miles runAvg speedWind from/ knotsBaromVisibWave heightAir tempDewpointWater temp
2018-Jul-17 10:55N 33°52' E 135°04'4 9.3
2018-Jul-17 10:30N 33°55' E 135°01'510.6
2018-Jul-17 10:00N 34°00' E 135°00'510.5
2018-Jul-17 09:30N 34°05' E 134°59'611.4
2018-Jul-17 09:00N 34°11' E 134°59'713.2
2018-Jul-17 08:31N 34°18' E 134°59'611.3
2018-Jul-17 08:01N 34°23' E 134°60'611.3
2018-Jul-17 07:31N 34°29' E 135°02'611.3
2018-Jul-17 07:01N 34°34' E 135°03'810.8
2018-Jul-17 06:18N 34°37' E 134°54'512.9
2018-Jul-17 05:56N 34°40' E 134°50'3 0.1
2018-Jul-16 05:18N 34°43' E 134°49'2 0.1
2018-Jul-15 02:24N 34°43' E 134°51'1 1.5
2018-Jul-15 01:40N 34°42' E 134°50'1011.2
2018-Jul-15 00:48N 34°35' E 134°42'311.0
2018-Jul-15 00:31N 34°32' E 134°41'610.8
2018-Jul-14 23:55N 34°25' E 134°39'511.7
2018-Jul-14 23:30N 34°21' E 134°38'2211.5
2018-Jul-14 21:38N 34°02' E 134°52'310.5
2018-Jul-14 21:19N 33°60' E 134°54'310.8
2018-Jul-14 21:00N 33°57' E 134°57'510.5
2018-Jul-14 20:29N 33°53' E 135°01'1 0.0
2018-Jul-13 03:40N 33°53' E 135°02'412.0
2018-Jul-13 03:22N 33°56' E 135°02'411.8
2018-Jul-13 03:00N 34°01' E 135°02'611.3
2018-Jul-13 02:30N 34°06' E 135°01'511.2
2018-Jul-13 02:00N 34°12' E 135°00'612.4
2018-Jul-13 01:30N 34°18' E 134°59'611.4
2018-Jul-13 00:59N 34°24' E 135°01'510.8
2018-Jul-13 00:30N 34°29' E 135°02'5 9.8
2018-Jul-13 00:00N 34°33' E 135°03'4 7.8
2018-Jul-12 23:29N 34°37' E 135°01'4 8.3
2018-Jul-12 22:57N 34°36' E 134°56'4 8.8
2018-Jul-12 22:30N 34°38' E 134°51'5 9.4
2018-Jul-12 21:59N 34°42' E 134°48'1 0.0
2018-Jul-11 22:59N 34°42' E 134°49'2 0.1
2018-Jul-10 15:23N 34°40' E 134°50'3 7.7
2018-Jul-10 14:56N 34°38' E 134°53'4 9.2
2018-Jul-10 14:29N 34°38' E 134°58'5 9.3
2018-Jul-10 14:00N 34°36' E 135°04'5 9.6
2018-Jul-10 13:30N 34°31' E 135°04'611.2
2018-Jul-10 13:00N 34°26' E 135°03'612.3
2018-Jul-10 12:30N 34°20' E 135°00'611.8
2018-Jul-10 12:01N 34°14' E 134°60'510.6
2018-Jul-10 11:30N 34°09' E 135°00'611.3
2018-Jul-10 11:00N 34°03' E 135°01'611.0
2018-Jul-10 10:28N 33°57' E 135°02'221 9.7
2018-Jul-09 11:44N 34°56' E 139°20'3 8.0
2018-Jul-09 11:23N 34°57' E 139°23'3 8.0
2018-Jul-09 10:59N 34°59' E 139°26'4 9.2
2018-Jul-09 10:30N 35°01' E 139°30'510.2
2018-Jul-09 10:00N 35°04' E 139°36'612.3
2018-Jul-09 09:30N 35°08' E 139°42'611.5
2018-Jul-09 09:00N 35°12' E 139°46'510.7
2018-Jul-09 08:30N 35°17' E 139°44'610.8
2018-Jul-09 08:00N 35°23' E 139°42'510.1
2018-Jul-09 07:30N 35°26' E 139°46'510.6
2018-Jul-09 07:00N 35°30' E 139°51'11 1.8
2018-Jul-09 01:01N 35°39' E 139°58'3 0.3
2018-Jul-08 15:39N 35°36' E 139°58'310.3
2018-Jul-08 15:21N 35°34' E 139°56'410.9
2018-Jul-08 15:00N 35°31' E 139°53'511.0
2018-Jul-08 14:30N 35°26' E 139°49'510.8
2018-Jul-08 14:00N 35°22' E 139°45'510.1
2018-Jul-08 13:30N 35°17' E 139°46'510.6
2018-Jul-08 13:00N 35°12' E 139°47'610.8
2018-Jul-08 12:29N 35°06' E 139°44'510.9
2018-Jul-08 12:00N 35°02' E 139°40'612.2
2018-Jul-08 11:29N 34°59' E 139°34'230 9.8
2018-Jul-07 12:01N 33°50' E 135°08'110.5
2018-Jul-07 11:57N 33°50' E 135°07'510.0
2018-Jul-07 11:30N 33°53' E 135°03'5 9.6
2018-Jul-07 11:00N 33°57' E 135°03'  
Track history (hours):
 
Tides and Currents Weather Stations Pressure Air Temp Water Temp Dewpoint Dewpoint Depression Visibility Wind Speed Wind Dir Waves Ship Positions

Meiryu Maru

Last reported at 2018-Jul-17 10:55 UTC. Time now 2018-Jul-17 11:24 UTC.
Position N 33°52' E 135°04'.

Length 76 m; draft 4 m.

Type: Cargo ship. MMSI: 431000206.

Date/timePositionNaut miles runAvg speedWind from/ knotsBaromVisibWave heightAir tempDewpointWater temp
2018-Jul-17 10:55N 33°52' E 135°04'4 9.3
2018-Jul-17 10:30N 33°55' E 135°01'510.6
2018-Jul-17 10:00N 34°00' E 135°00'510.5
2018-Jul-17 09:30N 34°05' E 134°59'611.4
2018-Jul-17 09:00N 34°11' E 134°59'713.2
2018-Jul-17 08:31N 34°18' E 134°59'611.3
2018-Jul-17 08:01N 34°23' E 134°60'611.3
2018-Jul-17 07:31N 34°29' E 135°02'611.3
2018-Jul-17 07:01N 34°34' E 135°03'810.8
2018-Jul-17 06:18N 34°37' E 134°54'512.9
2018-Jul-17 05:56N 34°40' E 134°50'3 0.1
2018-Jul-16 05:18N 34°43' E 134°49'2 0.1
2018-Jul-15 02:24N 34°43' E 134°51'1 1.5
2018-Jul-15 01:40N 34°42' E 134°50'1011.2
2018-Jul-15 00:48N 34°35' E 134°42'311.0
2018-Jul-15 00:31N 34°32' E 134°41'610.8
2018-Jul-14 23:55N 34°25' E 134°39'511.7
2018-Jul-14 23:30N 34°21' E 134°38'2211.5
2018-Jul-14 21:38N 34°02' E 134°52'310.5
2018-Jul-14 21:19N 33°60' E 134°54'310.8
2018-Jul-14 21:00N 33°57' E 134°57'510.5
2018-Jul-14 20:29N 33°53' E 135°01'1 0.0
2018-Jul-13 03:40N 33°53' E 135°02'412.0
2018-Jul-13 03:22N 33°56' E 135°02'411.8
2018-Jul-13 03:00N 34°01' E 135°02'611.3
2018-Jul-13 02:30N 34°06' E 135°01'511.2
2018-Jul-13 02:00N 34°12' E 135°00'612.4
2018-Jul-13 01:30N 34°18' E 134°59'611.4
2018-Jul-13 00:59N 34°24' E 135°01'510.8
2018-Jul-13 00:30N 34°29' E 135°02'5 9.8
2018-Jul-13 00:00N 34°33' E 135°03'4 7.8
2018-Jul-12 23:29N 34°37' E 135°01'4 8.3
2018-Jul-12 22:57N 34°36' E 134°56'4 8.8
2018-Jul-12 22:30N 34°38' E 134°51'5 9.4
2018-Jul-12 21:59N 34°42' E 134°48'1 0.0
2018-Jul-11 22:59N 34°42' E 134°49'2 0.1
2018-Jul-10 15:23N 34°40' E 134°50'3 7.7
2018-Jul-10 14:56N 34°38' E 134°53'4 9.2
2018-Jul-10 14:29N 34°38' E 134°58'5 9.3
2018-Jul-10 14:00N 34°36' E 135°04'5 9.6
2018-Jul-10 13:30N 34°31' E 135°04'611.2
2018-Jul-10 13:00N 34°26' E 135°03'612.3
2018-Jul-10 12:30N 34°20' E 135°00'611.8
2018-Jul-10 12:01N 34°14' E 134°60'510.6
2018-Jul-10 11:30N 34°09' E 135°00'611.3
2018-Jul-10 11:00N 34°03' E 135°01'611.0
2018-Jul-10 10:28N 33°57' E 135°02'221 9.7
2018-Jul-09 11:44N 34°56' E 139°20'3 8.0
2018-Jul-09 11:23N 34°57' E 139°23'3 8.0
2018-Jul-09 10:59N 34°59' E 139°26'4 9.2
2018-Jul-09 10:30N 35°01' E 139°30'510.2
2018-Jul-09 10:00N 35°04' E 139°36'612.3
2018-Jul-09 09:30N 35°08' E 139°42'611.5
2018-Jul-09 09:00N 35°12' E 139°46'510.7
2018-Jul-09 08:30N 35°17' E 139°44'610.8
2018-Jul-09 08:00N 35°23' E 139°42'510.1
2018-Jul-09 07:30N 35°26' E 139°46'510.6
2018-Jul-09 07:00N 35°30' E 139°51'11 1.8
2018-Jul-09 01:01N 35°39' E 139°58'3 0.3
2018-Jul-08 15:39N 35°36' E 139°58'310.3
2018-Jul-08 15:21N 35°34' E 139°56'410.9
2018-Jul-08 15:00N 35°31' E 139°53'511.0
2018-Jul-08 14:30N 35°26' E 139°49'510.8
2018-Jul-08 14:00N 35°22' E 139°45'510.1
2018-Jul-08 13:30N 35°17' E 139°46'510.6
2018-Jul-08 13:00N 35°12' E 139°47'610.8
2018-Jul-08 12:29N 35°06' E 139°44'510.9
2018-Jul-08 12:00N 35°02' E 139°40'612.2
2018-Jul-08 11:29N 34°59' E 139°34'230 9.8
2018-Jul-07 12:01N 33°50' E 135°08'110.5
2018-Jul-07 11:57N 33°50' E 135°07'510.0
2018-Jul-07 11:30N 33°53' E 135°03'5 9.6
2018-Jul-07 11:00N 33°57' E 135°03'  

Dump ship's entire track history